sensor_id;sensor_type;location;lat;lon;timestamp;P1;durP1;ratioP1;P2;durP2;ratioP2
10463;SDS011;5279;42.048;24.638;2024-01-11T00:01:45;7.53;;;5.10;;
10463;SDS011;5279;42.048;24.638;2024-01-11T00:04:12;4.77;;;4.23;;
10463;SDS011;5279;42.048;24.638;2024-01-11T00:06:40;5.10;;;3.73;;
10463;SDS011;5279;42.048;24.638;2024-01-11T00:09:08;4.97;;;4.20;;
10463;SDS011;5279;42.048;24.638;2024-01-11T00:11:34;7.37;;;5.27;;
10463;SDS011;5279;42.048;24.638;2024-01-11T00:14:03;7.63;;;5.10;;
10463;SDS011;5279;42.048;24.638;2024-01-11T00:16:29;5.13;;;3.87;;
10463;SDS011;5279;42.048;24.638;2024-01-11T00:18:56;3.57;;;3.27;;
10463;SDS011;5279;42.048;24.638;2024-01-11T00:21:23;4.13;;;3.57;;
10463;SDS011;5279;42.048;24.638;2024-01-11T00:23:50;4.10;;;3.70;;
10463;SDS011;5279;42.048;24.638;2024-01-11T00:26:16;5.10;;;3.83;;
10463;SDS011;5279;42.048;24.638;2024-01-11T00:28:43;4.50;;;3.87;;
10463;SDS011;5279;42.048;24.638;2024-01-11T00:31:12;5.80;;;4.60;;
10463;SDS011;5279;42.048;24.638;2024-01-11T00:33:38;4.80;;;4.20;;
10463;SDS011;5279;42.048;24.638;2024-01-11T00:36:05;5.80;;;4.43;;
10463;SDS011;5279;42.048;24.638;2024-01-11T00:38:32;4.57;;;4.07;;
10463;SDS011;5279;42.048;24.638;2024-01-11T00:40:59;3.70;;;3.23;;
10463;SDS011;5279;42.048;24.638;2024-01-11T00:43:26;4.57;;;4.10;;
10463;SDS011;5279;42.048;24.638;2024-01-11T00:45:52;5.17;;;3.70;;
10463;SDS011;5279;42.048;24.638;2024-01-11T00:48:20;5.03;;;3.63;;
10463;SDS011;5279;42.048;24.638;2024-01-11T00:50:47;5.13;;;3.80;;
10463;SDS011;5279;42.048;24.638;2024-01-11T00:53:14;5.23;;;4.23;;
10463;SDS011;5279;42.048;24.638;2024-01-11T00:55:41;4.73;;;3.97;;
10463;SDS011;5279;42.048;24.638;2024-01-11T00:58:08;4.57;;;3.73;;
10463;SDS011;5279;42.048;24.638;2024-01-11T01:00:35;4.00;;;3.60;;
10463;SDS011;5279;42.048;24.638;2024-01-11T01:03:01;4.77;;;3.50;;
10463;SDS011;5279;42.048;24.638;2024-01-11T01:05:30;3.13;;;2.80;;
10463;SDS011;5279;42.048;24.638;2024-01-11T01:07:56;4.77;;;3.67;;
10463;SDS011;5279;42.048;24.638;2024-01-11T01:10:23;5.27;;;3.03;;
10463;SDS011;5279;42.048;24.638;2024-01-11T01:12:50;4.63;;;3.57;;
10463;SDS011;5279;42.048;24.638;2024-01-11T01:15:17;4.83;;;4.00;;
10463;SDS011;5279;42.048;24.638;2024-01-11T01:17:43;4.70;;;3.73;;
10463;SDS011;5279;42.048;24.638;2024-01-11T01:20:10;3.57;;;3.27;;
10463;SDS011;5279;42.048;24.638;2024-01-11T01:22:39;4.20;;;3.80;;
10463;SDS011;5279;42.048;24.638;2024-01-11T01:25:06;4.60;;;3.87;;
10463;SDS011;5279;42.048;24.638;2024-01-11T01:27:33;4.37;;;3.33;;
10463;SDS011;5279;42.048;24.638;2024-01-11T01:30:00;4.93;;;3.40;;
10463;SDS011;5279;42.048;24.638;2024-01-11T01:32:26;5.40;;;3.60;;
10463;SDS011;5279;42.048;24.638;2024-01-11T01:34:53;3.93;;;3.43;;
10463;SDS011;5279;42.048;24.638;2024-01-11T01:37:20;3.87;;;2.97;;
10463;SDS011;5279;42.048;24.638;2024-01-11T01:39:47;3.73;;;3.27;;
10463;SDS011;5279;42.048;24.638;2024-01-11T01:42:13;3.23;;;2.70;;
10463;SDS011;5279;42.048;24.638;2024-01-11T01:44:40;2.83;;;2.53;;
10463;SDS011;5279;42.048;24.638;2024-01-11T01:47:08;3.57;;;2.90;;
10463;SDS011;5279;42.048;24.638;2024-01-11T01:49:36;3.80;;;3.07;;
10463;SDS011;5279;42.048;24.638;2024-01-11T01:52:05;3.47;;;3.17;;
10463;SDS011;5279;42.048;24.638;2024-01-11T01:54:33;3.30;;;3.00;;
10463;SDS011;5279;42.048;24.638;2024-01-11T01:57:01;4.67;;;3.57;;
10463;SDS011;5279;42.048;24.638;2024-01-11T01:59:31;3.30;;;2.90;;
10463;SDS011;5279;42.048;24.638;2024-01-11T02:01:58;3.40;;;3.10;;
10463;SDS011;5279;42.048;24.638;2024-01-11T02:04:24;4.13;;;3.20;;
10463;SDS011;5279;42.048;24.638;2024-01-11T02:06:51;2.87;;;2.63;;
10463;SDS011;5279;42.048;24.638;2024-01-11T02:09:20;3.27;;;2.97;;
10463;SDS011;5279;42.048;24.638;2024-01-11T02:11:47;2.97;;;2.43;;
10463;SDS011;5279;42.048;24.638;2024-01-11T02:14:15;4.07;;;2.90;;
10463;SDS011;5279;42.048;24.638;2024-01-11T02:16:42;3.33;;;2.20;;
10463;SDS011;5279;42.048;24.638;2024-01-11T02:19:10;3.17;;;2.87;;
10463;SDS011;5279;42.048;24.638;2024-01-11T02:21:39;5.30;;;2.37;;
10463;SDS011;5279;42.048;24.638;2024-01-11T02:24:09;2.30;;;2.07;;
10463;SDS011;5279;42.048;24.638;2024-01-11T02:26:36;2.70;;;2.03;;
10463;SDS011;5279;42.048;24.638;2024-01-11T02:29:23;2.10;;;1.90;;
10463;SDS011;5279;42.048;24.638;2024-01-11T02:31:50;2.60;;;2.40;;
10463;SDS011;5279;42.048;24.638;2024-01-11T02:34:17;2.70;;;2.50;;
10463;SDS011;5279;42.048;24.638;2024-01-11T02:36:45;3.83;;;2.40;;
10463;SDS011;5279;42.048;24.638;2024-01-11T02:39:13;1.73;;;1.63;;
10463;SDS011;5279;42.048;24.638;2024-01-11T02:41:42;2.30;;;2.10;;
10463;SDS011;5279;42.048;24.638;2024-01-11T02:44:10;2.23;;;2.03;;
10463;SDS011;5279;42.048;24.638;2024-01-11T02:46:37;1.90;;;1.80;;
10463;SDS011;5279;42.048;24.638;2024-01-11T02:49:03;2.27;;;2.13;;
10463;SDS011;5279;42.048;24.638;2024-01-11T02:51:30;2.00;;;1.90;;
10463;SDS011;5279;42.048;24.638;2024-01-11T02:53:57;2.30;;;2.10;;
10463;SDS011;5279;42.048;24.638;2024-01-11T02:56:25;1.87;;;1.73;;
10463;SDS011;5279;42.048;24.638;2024-01-11T02:58:52;2.13;;;1.93;;
10463;SDS011;5279;42.048;24.638;2024-01-11T03:01:18;3.10;;;1.87;;
10463;SDS011;5279;42.048;24.638;2024-01-11T03:03:45;2.90;;;2.13;;
10463;SDS011;5279;42.048;24.638;2024-01-11T03:06:12;2.00;;;1.90;;
10463;SDS011;5279;42.048;24.638;2024-01-11T03:08:39;2.63;;;2.00;;
10463;SDS011;5279;42.048;24.638;2024-01-11T03:11:06;2.00;;;1.90;;
10463;SDS011;5279;42.048;24.638;2024-01-11T03:13:34;2.13;;;2.03;;
10463;SDS011;5279;42.048;24.638;2024-01-11T03:16:00;2.27;;;2.07;;
10463;SDS011;5279;42.048;24.638;2024-01-11T03:18:27;2.07;;;1.90;;
10463;SDS011;5279;42.048;24.638;2024-01-11T03:20:55;2.10;;;1.97;;
10463;SDS011;5279;42.048;24.638;2024-01-11T03:23:21;2.43;;;2.10;;
10463;SDS011;5279;42.048;24.638;2024-01-11T03:25:48;2.30;;;2.10;;
10463;SDS011;5279;42.048;24.638;2024-01-11T03:28:15;2.23;;;1.80;;
10463;SDS011;5279;42.048;24.638;2024-01-11T03:30:43;1.73;;;1.63;;
10463;SDS011;5279;42.048;24.638;2024-01-11T03:33:10;1.73;;;1.60;;
10463;SDS011;5279;42.048;24.638;2024-01-11T03:35:37;1.40;;;1.30;;
10463;SDS011;5279;42.048;24.638;2024-01-11T03:38:05;1.67;;;1.57;;
10463;SDS011;5279;42.048;24.638;2024-01-11T03:40:32;1.67;;;1.57;;
10463;SDS011;5279;42.048;24.638;2024-01-11T03:42:58;1.40;;;1.40;;
10463;SDS011;5279;42.048;24.638;2024-01-11T03:45:25;3.03;;;1.60;;
10463;SDS011;5279;42.048;24.638;2024-01-11T03:47:53;1.47;;;1.37;;
10463;SDS011;5279;42.048;24.638;2024-01-11T03:50:20;1.50;;;1.40;;
10463;SDS011;5279;42.048;24.638;2024-01-11T03:52:47;4.20;;;1.63;;
10463;SDS011;5279;42.048;24.638;2024-01-11T03:55:13;1.53;;;1.43;;
10463;SDS011;5279;42.048;24.638;2024-01-11T03:57:40;1.30;;;1.20;;
10463;SDS011;5279;42.048;24.638;2024-01-11T04:00:07;1.80;;;1.40;;
10463;SDS011;5279;42.048;24.638;2024-01-11T04:02:34;1.03;;;1.03;;
10463;SDS011;5279;42.048;24.638;2024-01-11T04:05:03;1.50;;;1.40;;
10463;SDS011;5279;42.048;24.638;2024-01-11T04:07:30;1.40;;;1.30;;
10463;SDS011;5279;42.048;24.638;2024-01-11T04:09:57;1.10;;;1.10;;
10463;SDS011;5279;42.048;24.638;2024-01-11T04:12:24;1.30;;;1.30;;
10463;SDS011;5279;42.048;24.638;2024-01-11T04:14:50;1.77;;;1.67;;
10463;SDS011;5279;42.048;24.638;2024-01-11T04:17:17;1.00;;;1.00;;
10463;SDS011;5279;42.048;24.638;2024-01-11T04:19:44;1.20;;;1.10;;
10463;SDS011;5279;42.048;24.638;2024-01-11T04:22:12;1.67;;;1.57;;
10463;SDS011;5279;42.048;24.638;2024-01-11T04:24:41;1.33;;;1.23;;
10463;SDS011;5279;42.048;24.638;2024-01-11T04:27:09;0.97;;;0.97;;
10463;SDS011;5279;42.048;24.638;2024-01-11T04:29:36;0.97;;;0.90;;
10463;SDS011;5279;42.048;24.638;2024-01-11T04:32:03;1.33;;;1.33;;
10463;SDS011;5279;42.048;24.638;2024-01-11T04:34:30;1.60;;;1.50;;
10463;SDS011;5279;42.048;24.638;2024-01-11T04:36:57;1.00;;;1.00;;
10463;SDS011;5279;42.048;24.638;2024-01-11T04:39:25;1.20;;;1.20;;
10463;SDS011;5279;42.048;24.638;2024-01-11T04:41:52;1.13;;;1.00;;
10463;SDS011;5279;42.048;24.638;2024-01-11T04:44:18;1.90;;;1.10;;
10463;SDS011;5279;42.048;24.638;2024-01-11T04:46:45;0.90;;;0.90;;
10463;SDS011;5279;42.048;24.638;2024-01-11T04:49:12;1.00;;;1.00;;
10463;SDS011;5279;42.048;24.638;2024-01-11T04:51:39;1.20;;;1.20;;
10463;SDS011;5279;42.048;24.638;2024-01-11T04:54:05;1.27;;;1.20;;
10463;SDS011;5279;42.048;24.638;2024-01-11T04:56:33;1.00;;;1.00;;
10463;SDS011;5279;42.048;24.638;2024-01-11T04:59:00;1.20;;;1.20;;
10463;SDS011;5279;42.048;24.638;2024-01-11T05:01:27;0.80;;;0.80;;
10463;SDS011;5279;42.048;24.638;2024-01-11T05:03:54;1.00;;;1.00;;
10463;SDS011;5279;42.048;24.638;2024-01-11T05:06:21;1.10;;;1.10;;
10463;SDS011;5279;42.048;24.638;2024-01-11T05:08:50;1.37;;;1.27;;
10463;SDS011;5279;42.048;24.638;2024-01-11T05:11:18;0.90;;;0.90;;
10463;SDS011;5279;42.048;24.638;2024-01-11T05:13:46;1.30;;;1.20;;
10463;SDS011;5279;42.048;24.638;2024-01-11T05:16:20;1.00;;;1.00;;
10463;SDS011;5279;42.048;24.638;2024-01-11T05:18:48;1.20;;;1.20;;
10463;SDS011;5279;42.048;24.638;2024-01-11T05:21:14;1.50;;;1.40;;
10463;SDS011;5279;42.048;24.638;2024-01-11T05:23:41;1.00;;;1.00;;
10463;SDS011;5279;42.048;24.638;2024-01-11T05:26:08;1.00;;;0.97;;
10463;SDS011;5279;42.048;24.638;2024-01-11T05:28:35;1.20;;;1.20;;
10463;SDS011;5279;42.048;24.638;2024-01-11T05:31:05;1.00;;;1.00;;
10463;SDS011;5279;42.048;24.638;2024-01-11T05:33:34;1.00;;;0.93;;
10463;SDS011;5279;42.048;24.638;2024-01-11T05:36:01;1.13;;;1.03;;
10463;SDS011;5279;42.048;24.638;2024-01-11T05:38:28;0.90;;;0.90;;
10463;SDS011;5279;42.048;24.638;2024-01-11T05:40:55;1.30;;;1.20;;
10463;SDS011;5279;42.048;24.638;2024-01-11T05:43:22;0.70;;;0.70;;
10463;SDS011;5279;42.048;24.638;2024-01-11T05:45:49;1.10;;;1.10;;
10463;SDS011;5279;42.048;24.638;2024-01-11T05:48:17;1.10;;;1.10;;
10463;SDS011;5279;42.048;24.638;2024-01-11T05:50:44;0.90;;;0.90;;
10463;SDS011;5279;42.048;24.638;2024-01-11T05:53:11;1.00;;;1.00;;
10463;SDS011;5279;42.048;24.638;2024-01-11T05:55:38;1.47;;;1.37;;
10463;SDS011;5279;42.048;24.638;2024-01-11T05:58:05;0.97;;;0.97;;
10463;SDS011;5279;42.048;24.638;2024-01-11T06:00:32;1.30;;;1.20;;
10463;SDS011;5279;42.048;24.638;2024-01-11T06:02:59;1.10;;;1.10;;
10463;SDS011;5279;42.048;24.638;2024-01-11T06:05:27;0.80;;;0.80;;
10463;SDS011;5279;42.048;24.638;2024-01-11T06:07:53;1.40;;;1.30;;
10463;SDS011;5279;42.048;24.638;2024-01-11T06:10:20;1.10;;;1.10;;
10463;SDS011;5279;42.048;24.638;2024-01-11T06:12:47;1.20;;;1.20;;
10463;SDS011;5279;42.048;24.638;2024-01-11T06:15:14;1.30;;;1.30;;
10463;SDS011;5279;42.048;24.638;2024-01-11T06:17:40;1.43;;;1.10;;
10463;SDS011;5279;42.048;24.638;2024-01-11T06:20:07;1.20;;;1.10;;
10463;SDS011;5279;42.048;24.638;2024-01-11T06:22:37;1.00;;;0.90;;
10463;SDS011;5279;42.048;24.638;2024-01-11T06:25:03;0.90;;;0.90;;
10463;SDS011;5279;42.048;24.638;2024-01-11T06:27:31;0.80;;;0.80;;
10463;SDS011;5279;42.048;24.638;2024-01-11T06:29:57;1.10;;;1.10;;
10463;SDS011;5279;42.048;24.638;2024-01-11T06:32:24;1.50;;;1.40;;
10463;SDS011;5279;42.048;24.638;2024-01-11T06:34:51;0.90;;;0.90;;
10463;SDS011;5279;42.048;24.638;2024-01-11T06:37:18;1.13;;;1.13;;
10463;SDS011;5279;42.048;24.638;2024-01-11T06:39:46;1.30;;;1.20;;
10463;SDS011;5279;42.048;24.638;2024-01-11T06:42:13;0.80;;;0.80;;
10463;SDS011;5279;42.048;24.638;2024-01-11T06:44:39;2.23;;;2.10;;
10463;SDS011;5279;42.048;24.638;2024-01-11T06:47:06;1.60;;;1.50;;
10463;SDS011;5279;42.048;24.638;2024-01-11T06:49:33;1.00;;;0.90;;
10463;SDS011;5279;42.048;24.638;2024-01-11T06:52:00;0.87;;;0.87;;
10463;SDS011;5279;42.048;24.638;2024-01-11T06:54:28;0.80;;;0.80;;
10463;SDS011;5279;42.048;24.638;2024-01-11T06:56:56;0.80;;;0.80;;
10463;SDS011;5279;42.048;24.638;2024-01-11T06:59:23;0.90;;;0.90;;
10463;SDS011;5279;42.048;24.638;2024-01-11T07:01:50;0.73;;;0.73;;
10463;SDS011;5279;42.048;24.638;2024-01-11T07:04:17;0.70;;;0.70;;
10463;SDS011;5279;42.048;24.638;2024-01-11T07:06:44;0.70;;;0.70;;
10463;SDS011;5279;42.048;24.638;2024-01-11T07:09:10;0.83;;;0.83;;
10463;SDS011;5279;42.048;24.638;2024-01-11T07:11:37;1.00;;;1.00;;
10463;SDS011;5279;42.048;24.638;2024-01-11T07:14:05;1.00;;;1.00;;
10463;SDS011;5279;42.048;24.638;2024-01-11T07:16:32;0.90;;;0.90;;
10463;SDS011;5279;42.048;24.638;2024-01-11T07:18:58;0.93;;;0.90;;
10463;SDS011;5279;42.048;24.638;2024-01-11T07:21:25;1.00;;;1.00;;
10463;SDS011;5279;42.048;24.638;2024-01-11T07:23:56;0.60;;;0.60;;
10463;SDS011;5279;42.048;24.638;2024-01-11T07:26:23;0.77;;;0.77;;
10463;SDS011;5279;42.048;24.638;2024-01-11T07:28:50;1.17;;;0.90;;
10463;SDS011;5279;42.048;24.638;2024-01-11T07:31:21;0.87;;;0.87;;
10463;SDS011;5279;42.048;24.638;2024-01-11T07:33:48;1.17;;;1.07;;
10463;SDS011;5279;42.048;24.638;2024-01-11T07:36:15;1.50;;;1.40;;
10463;SDS011;5279;42.048;24.638;2024-01-11T07:38:42;1.60;;;1.50;;
10463;SDS011;5279;42.048;24.638;2024-01-11T07:41:09;1.83;;;1.50;;
10463;SDS011;5279;42.048;24.638;2024-01-11T07:43:36;3.00;;;2.17;;
10463;SDS011;5279;42.048;24.638;2024-01-11T07:46:03;5.50;;;4.07;;
10463;SDS011;5279;42.048;24.638;2024-01-11T07:48:32;7.77;;;5.27;;
10463;SDS011;5279;42.048;24.638;2024-01-11T07:50:59;5.20;;;4.07;;
10463;SDS011;5279;42.048;24.638;2024-01-11T07:53:44;4.67;;;3.30;;
10463;SDS011;5279;42.048;24.638;2024-01-11T07:56:10;3.20;;;2.73;;
10463;SDS011;5279;42.048;24.638;2024-01-11T07:58:37;3.17;;;2.70;;
10463;SDS011;5279;42.048;24.638;2024-01-11T08:01:04;6.00;;;4.30;;
10463;SDS011;5279;42.048;24.638;2024-01-11T08:03:32;5.57;;;4.90;;
10463;SDS011;5279;42.048;24.638;2024-01-11T08:05:59;5.80;;;5.20;;
10463;SDS011;5279;42.048;24.638;2024-01-11T08:08:26;5.43;;;4.40;;
10463;SDS011;5279;42.048;24.638;2024-01-11T08:10:53;4.37;;;3.97;;
10463;SDS011;5279;42.048;24.638;2024-01-11T08:13:20;5.33;;;4.40;;
10463;SDS011;5279;42.048;24.638;2024-01-11T08:15:46;4.33;;;3.93;;
10463;SDS011;5279;42.048;24.638;2024-01-11T08:18:13;4.00;;;3.60;;
10463;SDS011;5279;42.048;24.638;2024-01-11T08:20:41;5.30;;;4.40;;
10463;SDS011;5279;42.048;24.638;2024-01-11T08:23:08;5.13;;;4.00;;
10463;SDS011;5279;42.048;24.638;2024-01-11T08:25:35;4.87;;;3.80;;
10463;SDS011;5279;42.048;24.638;2024-01-11T08:28:02;2.20;;;2.00;;
10463;SDS011;5279;42.048;24.638;2024-01-11T08:30:28;2.10;;;2.00;;
10463;SDS011;5279;42.048;24.638;2024-01-11T08:32:55;3.90;;;3.37;;
10463;SDS011;5279;42.048;24.638;2024-01-11T08:35:22;3.83;;;3.30;;
10463;SDS011;5279;42.048;24.638;2024-01-11T08:37:50;5.70;;;4.80;;
10463;SDS011;5279;42.048;24.638;2024-01-11T08:40:16;3.97;;;3.37;;
10463;SDS011;5279;42.048;24.638;2024-01-11T08:42:43;3.83;;;3.43;;
10463;SDS011;5279;42.048;24.638;2024-01-11T08:45:10;7.77;;;6.00;;
10463;SDS011;5279;42.048;24.638;2024-01-11T08:47:42;8.70;;;7.80;;
10463;SDS011;5279;42.048;24.638;2024-01-11T08:50:11;9.63;;;7.90;;
10463;SDS011;5279;42.048;24.638;2024-01-11T08:52:38;9.23;;;7.90;;
10463;SDS011;5279;42.048;24.638;2024-01-11T08:55:07;13.03;;;10.07;;
10463;SDS011;5279;42.048;24.638;2024-01-11T08:57:34;10.77;;;9.57;;
10463;SDS011;5279;42.048;24.638;2024-01-11T09:00:02;11.90;;;9.67;;
10463;SDS011;5279;42.048;24.638;2024-01-11T09:05:42;12.43;;;10.73;;
10463;SDS011;5279;42.048;24.638;2024-01-11T09:08:08;12.10;;;10.33;;
10463;SDS011;5279;42.048;24.638;2024-01-11T09:10:36;11.17;;;9.97;;
10463;SDS011;5279;42.048;24.638;2024-01-11T09:13:03;13.53;;;10.20;;
10463;SDS011;5279;42.048;24.638;2024-01-11T09:15:31;12.00;;;10.10;;
10463;SDS011;5279;42.048;24.638;2024-01-11T09:20:47;11.37;;;9.73;;
10463;SDS011;5279;42.048;24.638;2024-01-11T09:23:14;10.13;;;9.00;;
10463;SDS011;5279;42.048;24.638;2024-01-11T09:25:43;10.20;;;9.10;;
10463;SDS011;5279;42.048;24.638;2024-01-11T09:28:09;12.20;;;9.77;;
10463;SDS011;5279;42.048;24.638;2024-01-11T09:30:36;12.33;;;9.77;;
10463;SDS011;5279;42.048;24.638;2024-01-11T09:33:03;9.63;;;8.57;;
10463;SDS011;5279;42.048;24.638;2024-01-11T09:35:31;10.53;;;9.10;;
10463;SDS011;5279;42.048;24.638;2024-01-11T09:37:58;10.10;;;9.03;;
10463;SDS011;5279;42.048;24.638;2024-01-11T09:40:26;10.00;;;9.00;;
10463;SDS011;5279;42.048;24.638;2024-01-11T09:42:54;8.93;;;8.07;;
10463;SDS011;5279;42.048;24.638;2024-01-11T09:45:20;10.13;;;9.10;;
10463;SDS011;5279;42.048;24.638;2024-01-11T09:47:47;10.43;;;8.27;;
10463;SDS011;5279;42.048;24.638;2024-01-11T09:50:15;11.53;;;7.87;;
10463;SDS011;5279;42.048;24.638;2024-01-11T09:52:45;9.00;;;7.80;;
10463;SDS011;5279;42.048;24.638;2024-01-11T09:55:13;9.60;;;8.30;;
10463;SDS011;5279;42.048;24.638;2024-01-11T09:57:43;11.20;;;8.40;;
10463;SDS011;5279;42.048;24.638;2024-01-11T10:00:13;8.50;;;7.70;;
10463;SDS011;5279;42.048;24.638;2024-01-11T10:02:43;9.50;;;8.50;;
10463;SDS011;5279;42.048;24.638;2024-01-11T10:05:11;8.27;;;7.43;;
10463;SDS011;5279;42.048;24.638;2024-01-11T10:07:39;10.13;;;6.97;;
10463;SDS011;5279;42.048;24.638;2024-01-11T10:10:06;8.80;;;7.50;;
10463;SDS011;5279;42.048;24.638;2024-01-11T10:12:34;8.77;;;7.87;;
10463;SDS011;5279;42.048;24.638;2024-01-11T10:15:04;10.87;;;7.90;;
10463;SDS011;5279;42.048;24.638;2024-01-11T10:17:36;8.63;;;7.83;;
10463;SDS011;5279;42.048;24.638;2024-01-11T10:20:03;9.07;;;8.13;;
10463;SDS011;5279;42.048;24.638;2024-01-11T10:22:31;9.37;;;8.40;;
10463;SDS011;5279;42.048;24.638;2024-01-11T10:25:08;9.77;;;8.77;;
10463;SDS011;5279;42.048;24.638;2024-01-11T10:27:37;9.33;;;8.43;;
10463;SDS011;5279;42.048;24.638;2024-01-11T10:30:07;10.37;;;9.40;;
10463;SDS011;5279;42.048;24.638;2024-01-11T10:32:36;10.67;;;9.57;;
10463;SDS011;5279;42.048;24.638;2024-01-11T10:35:03;13.67;;;9.80;;
10463;SDS011;5279;42.048;24.638;2024-01-11T10:37:31;10.60;;;9.50;;
10463;SDS011;5279;42.048;24.638;2024-01-11T10:40:02;11.70;;;10.50;;
10463;SDS011;5279;42.048;24.638;2024-01-11T10:42:35;11.37;;;10.33;;
10463;SDS011;5279;42.048;24.638;2024-01-11T10:45:04;10.10;;;9.10;;
10463;SDS011;5279;42.048;24.638;2024-01-11T10:47:38;10.40;;;9.40;;
10463;SDS011;5279;42.048;24.638;2024-01-11T10:50:09;11.07;;;9.30;;
10463;SDS011;5279;42.048;24.638;2024-01-11T10:52:41;9.93;;;8.97;;
10463;SDS011;5279;42.048;24.638;2024-01-11T10:55:12;9.60;;;8.70;;
10463;SDS011;5279;42.048;24.638;2024-01-11T10:57:38;11.07;;;9.83;;
10463;SDS011;5279;42.048;24.638;2024-01-11T11:00:06;12.43;;;9.57;;
10463;SDS011;5279;42.048;24.638;2024-01-11T11:02:38;10.83;;;9.60;;
10463;SDS011;5279;42.048;24.638;2024-01-11T11:05:05;11.40;;;8.97;;
10463;SDS011;5279;42.048;24.638;2024-01-11T11:07:35;11.07;;;9.43;;
10463;SDS011;5279;42.048;24.638;2024-01-11T11:10:04;11.23;;;10.13;;
10463;SDS011;5279;42.048;24.638;2024-01-11T11:12:32;10.57;;;9.57;;
10463;SDS011;5279;42.048;24.638;2024-01-11T11:14:59;11.60;;;10.30;;
10463;SDS011;5279;42.048;24.638;2024-01-11T11:20:39;10.40;;;9.37;;
10463;SDS011;5279;42.048;24.638;2024-01-11T11:23:07;10.47;;;9.47;;
10463;SDS011;5279;42.048;24.638;2024-01-11T11:25:35;11.07;;;9.97;;
10463;SDS011;5279;42.048;24.638;2024-01-11T11:28:02;11.07;;;9.60;;
10463;SDS011;5279;42.048;24.638;2024-01-11T11:30:30;11.37;;;10.20;;
10463;SDS011;5279;42.048;24.638;2024-01-11T11:32:57;10.90;;;9.90;;
10463;SDS011;5279;42.048;24.638;2024-01-11T11:35:25;10.17;;;9.17;;
10463;SDS011;5279;42.048;24.638;2024-01-11T11:37:56;10.37;;;9.33;;
10463;SDS011;5279;42.048;24.638;2024-01-11T11:40:31;10.60;;;8.70;;
10463;SDS011;5279;42.048;24.638;2024-01-11T11:43:04;9.77;;;8.87;;
10463;SDS011;5279;42.048;24.638;2024-01-11T11:45:31;10.32;;;9.32;;
10463;SDS011;5279;42.048;24.638;2024-01-11T11:47:58;9.85;;;8.85;;
10463;SDS011;5279;42.048;24.638;2024-01-11T11:50:25;9.40;;;8.50;;
10463;SDS011;5279;42.048;24.638;2024-01-11T11:52:57;8.98;;;8.13;;
10463;SDS011;5279;42.048;24.638;2024-01-11T11:55:24;10.43;;;9.32;;
10463;SDS011;5279;42.048;24.638;2024-01-11T11:57:51;10.35;;;8.25;;
10463;SDS011;5279;42.048;24.638;2024-01-11T12:00:18;11.60;;;8.30;;
10463;SDS011;5279;42.048;24.638;2024-01-11T12:02:46;10.13;;;9.20;;
10463;SDS011;5279;42.048;24.638;2024-01-11T12:05:13;11.07;;;9.77;;
10463;SDS011;5279;42.048;24.638;2024-01-11T12:07:40;10.88;;;9.88;;
10463;SDS011;5279;42.048;24.638;2024-01-11T12:10:08;10.50;;;9.55;;
10463;SDS011;5279;42.048;24.638;2024-01-11T12:12:38;9.50;;;8.60;;
10463;SDS011;5279;42.048;24.638;2024-01-11T12:15:07;10.20;;;9.20;;
10463;SDS011;5279;42.048;24.638;2024-01-11T12:17:34;10.65;;;9.60;;
10463;SDS011;5279;42.048;24.638;2024-01-11T12:20:01;11.65;;;10.50;;
10463;SDS011;5279;42.048;24.638;2024-01-11T12:22:28;9.75;;;8.77;;
10463;SDS011;5279;42.048;24.638;2024-01-11T12:24:55;9.55;;;8.73;;
10463;SDS011;5279;42.048;24.638;2024-01-11T12:27:24;9.88;;;8.88;;
10463;SDS011;5279;42.048;24.638;2024-01-11T12:29:52;9.63;;;8.70;;
10463;SDS011;5279;42.048;24.638;2024-01-11T12:32:19;9.40;;;8.60;;
10463;SDS011;5279;42.048;24.638;2024-01-11T12:34:45;8.35;;;7.57;;
10463;SDS011;5279;42.048;24.638;2024-01-11T12:37:13;8.85;;;8.02;;
10463;SDS011;5279;42.048;24.638;2024-01-11T12:39:42;9.45;;;8.55;;
10463;SDS011;5279;42.048;24.638;2024-01-11T12:42:09;10.75;;;8.38;;
10463;SDS011;5279;42.048;24.638;2024-01-11T12:44:37;9.48;;;7.80;;
10463;SDS011;5279;42.048;24.638;2024-01-11T12:47:05;9.27;;;8.48;;
10463;SDS011;5279;42.048;24.638;2024-01-11T12:49:34;8.27;;;7.38;;
10463;SDS011;5279;42.048;24.638;2024-01-11T12:52:00;9.43;;;8.52;;
10463;SDS011;5279;42.048;24.638;2024-01-11T12:54:27;9.57;;;8.30;;
10463;SDS011;5279;42.048;24.638;2024-01-11T12:56:59;9.68;;;8.73;;
10463;SDS011;5279;42.048;24.638;2024-01-11T12:59:27;10.23;;;8.10;;
10463;SDS011;5279;42.048;24.638;2024-01-11T13:01:55;8.52;;;7.68;;
10463;SDS011;5279;42.048;24.638;2024-01-11T13:04:24;9.25;;;8.27;;
10463;SDS011;5279;42.048;24.638;2024-01-11T13:06:51;9.00;;;8.10;;
10463;SDS011;5279;42.048;24.638;2024-01-11T13:09:18;8.90;;;8.00;;
10463;SDS011;5279;42.048;24.638;2024-01-11T13:11:45;8.95;;;8.13;;
10463;SDS011;5279;42.048;24.638;2024-01-11T13:14:12;8.60;;;7.47;;
10463;SDS011;5279;42.048;24.638;2024-01-11T13:16:44;9.18;;;8.10;;
10463;SDS011;5279;42.048;24.638;2024-01-11T13:19:12;8.80;;;8.00;;
10463;SDS011;5279;42.048;24.638;2024-01-11T13:21:39;9.02;;;8.20;;
10463;SDS011;5279;42.048;24.638;2024-01-11T13:24:06;8.95;;;7.95;;
10463;SDS011;5279;42.048;24.638;2024-01-11T13:26:33;9.10;;;8.20;;
10463;SDS011;5279;42.048;24.638;2024-01-11T13:29:01;9.93;;;8.25;;
10463;SDS011;5279;42.048;24.638;2024-01-11T13:31:28;9.43;;;7.97;;
10463;SDS011;5279;42.048;24.638;2024-01-11T13:33:55;9.53;;;8.13;;
10463;SDS011;5279;42.048;24.638;2024-01-11T13:36:23;8.97;;;8.07;;
10463;SDS011;5279;42.048;24.638;2024-01-11T13:38:50;8.90;;;8.00;;
10463;SDS011;5279;42.048;24.638;2024-01-11T13:41:18;8.77;;;7.50;;
10463;SDS011;5279;42.048;24.638;2024-01-11T13:43:45;8.07;;;7.27;;
10463;SDS011;5279;42.048;24.638;2024-01-11T13:46:15;9.40;;;7.63;;
10463;SDS011;5279;42.048;24.638;2024-01-11T13:48:44;8.83;;;7.23;;
10463;SDS011;5279;42.048;24.638;2024-01-11T13:51:11;7.53;;;6.07;;
10463;SDS011;5279;42.048;24.638;2024-01-11T13:53:42;5.53;;;5.03;;
10463;SDS011;5279;42.048;24.638;2024-01-11T13:56:08;5.80;;;4.73;;
10463;SDS011;5279;42.048;24.638;2024-01-11T13:58:36;3.80;;;3.50;;
10463;SDS011;5279;42.048;24.638;2024-01-11T14:01:03;3.87;;;3.47;;
10463;SDS011;5279;42.048;24.638;2024-01-11T14:03:30;6.23;;;5.17;;
10463;SDS011;5279;42.048;24.638;2024-01-11T14:05:56;1.60;;;1.50;;
10463;SDS011;5279;42.048;24.638;2024-01-11T14:08:24;1.23;;;1.13;;
10463;SDS011;5279;42.048;24.638;2024-01-11T14:10:52;1.80;;;1.70;;
10463;SDS011;5279;42.048;24.638;2024-01-11T14:13:19;2.60;;;2.40;;
10463;SDS011;5279;42.048;24.638;2024-01-11T14:15:46;1.50;;;1.40;;
10463;SDS011;5279;42.048;24.638;2024-01-11T14:18:15;4.40;;;3.50;;
10463;SDS011;5279;42.048;24.638;2024-01-11T14:20:42;1.50;;;1.40;;
10463;SDS011;5279;42.048;24.638;2024-01-11T14:23:09;2.27;;;1.70;;
10463;SDS011;5279;42.048;24.638;2024-01-11T14:25:36;1.70;;;1.40;;
10463;SDS011;5279;42.048;24.638;2024-01-11T14:28:04;1.23;;;1.13;;
10463;SDS011;5279;42.048;24.638;2024-01-11T14:30:31;1.50;;;1.40;;
10463;SDS011;5279;42.048;24.638;2024-01-11T14:32:58;2.30;;;2.10;;
10463;SDS011;5279;42.048;24.638;2024-01-11T14:35:25;1.33;;;1.23;;
10463;SDS011;5279;42.048;24.638;2024-01-11T14:37:52;1.60;;;1.50;;
10463;SDS011;5279;42.048;24.638;2024-01-11T14:40:18;2.00;;;1.63;;
10463;SDS011;5279;42.048;24.638;2024-01-11T14:42:45;1.60;;;1.50;;
10463;SDS011;5279;42.048;24.638;2024-01-11T14:45:13;2.23;;;2.03;;
10463;SDS011;5279;42.048;24.638;2024-01-11T14:47:40;2.30;;;2.10;;
10463;SDS011;5279;42.048;24.638;2024-01-11T14:50:07;2.97;;;2.27;;
10463;SDS011;5279;42.048;24.638;2024-01-11T14:52:35;3.13;;;2.83;;
10463;SDS011;5279;42.048;24.638;2024-01-11T14:55:05;4.93;;;2.70;;
10463;SDS011;5279;42.048;24.638;2024-01-11T14:57:34;3.00;;;2.70;;